Time;durP1;ratioP1;P1;durP2;ratioP2;P2;SDS_P1;SDS_P2;PMS_P1;PMS_P2;Temp;Humidity;BMP_temperature;BMP_pressure;BME280_temperature;BME280_humidity;BME280_pressure;Samples;Min_cycle;Max_cycle;Signal;HPM_P1;HPM_P2
2022/03/09 00:01:07;;;;;;;2.83;1.60;;;;;;;;;;5065498;28;20201;-72
2022/03/09 00:03:39;;;;;;;1.90;1.70;;;;;;;;;;5065412;28;20206;-72
2022/03/09 00:06:10;;;;;;;2.17;1.50;;;;;;;;;;5048893;28;20603;-71
2022/03/09 00:08:39;;;;;;;1.80;1.40;;;;;;;;;;5058000;28;20190;-71
2022/03/09 00:11:08;;;;;;;2.00;1.80;;;;;;;;;;5066544;28;20734;-70
2022/03/09 00:13:37;;;;;;;2.27;2.00;;;;;;;;;;5071197;28;20216;-70
2022/03/09 00:16:07;;;;;;;3.30;1.73;;;;;;;;;;5061390;28;20212;-70
2022/03/09 00:18:39;;;;;;;2.20;1.70;;;;;;;;;;5068007;28;20263;-70
2022/03/09 00:21:10;;;;;;;2.57;1.70;;;;;;;;;;5070988;28;20193;-70
2022/03/09 00:23:45;;;;;;;2.10;1.90;;;;;;;;;;5075026;28;20206;-71
2022/03/09 00:26:13;;;;;;;1.93;1.70;;;;;;;;;;5068544;28;20530;-71
2022/03/09 00:28:47;;;;;;;2.00;1.70;;;;;;;;;;5037147;28;20714;-71
2022/03/09 00:31:17;;;;;;;1.90;1.60;;;;;;;;;;5050371;28;20202;-72
2022/03/09 00:33:48;;;;;;;2.10;1.90;;;;;;;;;;5042681;28;20197;-71
2022/03/09 00:36:22;;;;;;;1.90;1.47;;;;;;;;;;5038494;28;20288;-71
2022/03/09 00:38:53;;;;;;;2.10;1.57;;;;;;;;;;5069420;28;20646;-71
2022/03/09 00:41:27;;;;;;;1.60;1.50;;;;;;;;;;5048937;28;20210;-70
2022/03/09 00:43:57;;;;;;;2.67;1.50;;;;;;;;;;5058575;28;20210;-71
2022/03/09 00:46:38;;;;;;;2.80;1.77;;;;;;;;;;5073342;28;20310;-71
2022/03/09 00:49:30;;;;;;;1.80;1.70;;;;;;;;;;5052773;28;20225;-71
2022/03/09 00:51:59;;;;;;;1.93;1.73;;;;;;;;;;5060470;28;20225;-72
2022/03/09 00:54:28;;;;;;;1.90;1.40;;;;;;;;;;5060018;28;20209;-71
2022/03/09 00:56:59;;;;;;;1.87;1.73;;;;;;;;;;5063114;28;20210;-71
2022/03/09 00:59:32;;;;;;;1.70;1.60;;;;;;;;;;5067794;28;20198;-70
2022/03/09 01:02:02;;;;;;;1.67;1.57;;;;;;;;;;5071442;28;20402;-71
2022/03/09 01:04:37;;;;;;;2.23;1.80;;;;;;;;;;5043657;28;20643;-71
2022/03/09 01:07:11;;;;;;;2.43;1.60;;;;;;;;;;5070820;28;20211;-70
2022/03/09 01:09:44;;;;;;;1.90;1.70;;;;;;;;;;5076450;28;20627;-71
2022/03/09 01:12:15;;;;;;;2.40;1.60;;;;;;;;;;5079611;28;20207;-71
2022/03/09 01:14:50;;;;;;;2.03;1.40;;;;;;;;;;5060945;28;20256;-71
2022/03/09 01:17:20;;;;;;;1.93;1.60;;;;;;;;;;5062955;28;20588;-70
2022/03/09 01:19:50;;;;;;;1.60;1.50;;;;;;;;;;5070799;28;20229;-70
2022/03/09 01:22:22;;;;;;;1.60;1.30;;;;;;;;;;5048449;28;20214;-70
2022/03/09 01:24:51;;;;;;;2.03;1.67;;;;;;;;;;5053774;28;20264;-71
2022/03/09 01:27:23;;;;;;;2.63;1.87;;;;;;;;;;5045346;28;20208;-70
2022/03/09 01:29:53;;;;;;;3.00;2.03;;;;;;;;;;5046336;28;20206;-72
2022/03/09 01:32:22;;;;;;;2.00;1.90;;;;;;;;;;5050598;28;20221;-71
2022/03/09 01:34:53;;;;;;;2.70;2.03;;;;;;;;;;5049645;28;20228;-70
2022/03/09 01:37:23;;;;;;;1.70;1.60;;;;;;;;;;5030566;28;20218;-71
2022/03/09 01:39:56;;;;;;;2.60;2.13;;;;;;;;;;5050086;28;20199;-70
2022/03/09 01:42:27;;;;;;;2.20;2.00;;;;;;;;;;5030992;28;20210;-72
2022/03/09 01:45:06;;;;;;;2.13;1.93;;;;;;;;;;5030840;28;20225;-70
2022/03/09 01:47:35;;;;;;;2.33;2.13;;;;;;;;;;5032613;28;20197;-71
2022/03/09 01:50:05;;;;;;;3.73;2.13;;;;;;;;;;5043710;28;20224;-71
2022/03/09 01:52:38;;;;;;;2.97;2.40;;;;;;;;;;5046377;28;20203;-71
2022/03/09 01:55:11;;;;;;;4.40;2.00;;;;;;;;;;5045378;28;20269;-70
2022/03/09 01:58:11;;;;;;;2.07;1.90;;;;;;;;;;5042510;28;20198;-71
2022/03/09 02:00:43;;;;;;;2.27;2.07;;;;;;;;;;5045833;28;20704;-71
2022/03/09 02:03:13;;;;;;;2.60;2.13;;;;;;;;;;5047915;28;20221;-72
2022/03/09 02:05:45;;;;;;;2.40;1.60;;;;;;;;;;5030844;28;20234;-71
2022/03/09 02:11:10;;;;;;;3.57;2.23;;;;;;;;;;5046827;28;20198;-71
2022/03/09 02:13:41;;;;;;;2.50;2.03;;;;;;;;;;5057014;28;20198;-71
2022/03/09 02:16:15;;;;;;;3.67;2.20;;;;;;;;;;5026688;28;20228;-69
2022/03/09 02:18:45;;;;;;;3.13;2.70;;;;;;;;;;5036092;28;20217;-70
2022/03/09 02:21:17;;;;;;;2.37;2.07;;;;;;;;;;5046724;28;20671;-70
2022/03/09 02:23:49;;;;;;;3.50;2.27;;;;;;;;;;5046565;28;20208;-71
2022/03/09 02:26:20;;;;;;;2.63;2.07;;;;;;;;;;5034729;28;20228;-70
2022/03/09 02:28:53;;;;;;;2.30;2.07;;;;;;;;;;5059532;28;20215;-72
2022/03/09 02:31:24;;;;;;;2.37;2.00;;;;;;;;;;5065888;28;20797;-71
2022/03/09 02:33:56;;;;;;;2.23;2.03;;;;;;;;;;5072003;28;20210;-71
2022/03/09 02:36:27;;;;;;;3.30;2.47;;;;;;;;;;5064834;28;20820;-70
2022/03/09 02:38:59;;;;;;;2.47;2.20;;;;;;;;;;5068692;28;20711;-70
2022/03/09 02:41:33;;;;;;;2.13;1.90;;;;;;;;;;5067241;28;20193;-70
2022/03/09 02:44:03;;;;;;;2.47;2.13;;;;;;;;;;5061098;28;20218;-70
2022/03/09 02:46:35;;;;;;;3.33;2.50;;;;;;;;;;5063255;28;20198;-71
2022/03/09 02:49:06;;;;;;;2.33;2.03;;;;;;;;;;5053778;28;20212;-71
2022/03/09 02:51:39;;;;;;;2.70;2.20;;;;;;;;;;5054450;28;20271;-70
2022/03/09 02:54:23;;;;;;;2.30;1.97;;;;;;;;;;5051285;28;20293;-69
2022/03/09 02:56:53;;;;;;;2.10;1.87;;;;;;;;;;5066807;28;20217;-70
2022/03/09 02:59:25;;;;;;;2.37;2.17;;;;;;;;;;5067864;28;20215;-70
2022/03/09 03:01:56;;;;;;;2.60;2.40;;;;;;;;;;5073122;28;20246;-71
2022/03/09 03:04:27;;;;;;;2.60;2.27;;;;;;;;;;5050620;28;20230;-69
2022/03/09 03:07:03;;;;;;;2.17;1.87;;;;;;;;;;5054982;28;20209;-70
2022/03/09 03:09:36;;;;;;;2.80;2.40;;;;;;;;;;5065112;28;20205;-70
2022/03/09 03:12:04;;;;;;;1.93;1.80;;;;;;;;;;5063744;28;20216;-70
2022/03/09 03:14:34;;;;;;;3.40;2.30;;;;;;;;;;5067012;28;20212;-70
2022/03/09 03:17:02;;;;;;;2.07;1.87;;;;;;;;;;5068472;28;20223;-70
2022/03/09 03:19:34;;;;;;;2.77;2.13;;;;;;;;;;5064222;28;20205;-69
2022/03/09 03:22:06;;;;;;;2.40;2.20;;;;;;;;;;5063961;28;20607;-70
2022/03/09 03:24:37;;;;;;;2.27;2.07;;;;;;;;;;5061794;28;20261;-69
2022/03/09 03:27:08;;;;;;;4.03;2.17;;;;;;;;;;5060508;28;20216;-69
2022/03/09 03:29:51;;;;;;;3.67;2.13;;;;;;;;;;5049908;28;20201;-70
2022/03/09 03:32:28;;;;;;;2.33;2.00;;;;;;;;;;5056936;28;20209;-70
2022/03/09 03:34:59;;;;;;;2.70;2.13;;;;;;;;;;5068524;28;20190;-70
2022/03/09 03:37:28;;;;;;;2.63;2.33;;;;;;;;;;5066158;28;20231;-71
2022/03/09 03:40:10;;;;;;;2.60;2.13;;;;;;;;;;5069415;28;20265;-70
2022/03/09 03:42:43;;;;;;;2.27;2.03;;;;;;;;;;5067162;28;20279;-70
2022/03/09 03:45:11;;;;;;;2.63;2.43;;;;;;;;;;5075283;28;20197;-70
2022/03/09 03:47:43;;;;;;;2.43;2.10;;;;;;;;;;5066884;28;20599;-70
2022/03/09 03:50:11;;;;;;;3.67;2.50;;;;;;;;;;5063311;28;20202;-70
2022/03/09 03:52:45;;;;;;;2.47;2.27;;;;;;;;;;5056751;28;20209;-70
2022/03/09 03:55:15;;;;;;;2.13;1.93;;;;;;;;;;5068729;28;20221;-70
2022/03/09 03:57:54;;;;;;;2.80;2.00;;;;;;;;;;5056314;28;20213;-70
2022/03/09 04:00:26;;;;;;;2.30;2.10;;;;;;;;;;5071095;28;20263;-69
2022/03/09 04:03:01;;;;;;;2.40;2.00;;;;;;;;;;5067610;28;20208;-70
2022/03/09 04:05:35;;;;;;;2.40;2.20;;;;;;;;;;5054964;28;20311;-70
2022/03/09 04:08:04;;;;;;;2.20;2.00;;;;;;;;;;5064968;28;20580;-69
2022/03/09 04:10:37;;;;;;;5.10;2.40;;;;;;;;;;5069084;28;20204;-70
2022/03/09 04:13:06;;;;;;;3.27;2.37;;;;;;;;;;5057059;28;20192;-70
2022/03/09 04:15:40;;;;;;;2.17;1.97;;;;;;;;;;5069194;28;20201;-70
2022/03/09 04:18:12;;;;;;;2.40;2.20;;;;;;;;;;5045544;28;20288;-71
2022/03/09 04:20:43;;;;;;;2.10;1.90;;;;;;;;;;5069840;28;20200;-70
2022/03/09 04:23:12;;;;;;;2.50;2.20;;;;;;;;;;5070062;28;20189;-70
2022/03/09 04:25:43;;;;;;;2.93;1.97;;;;;;;;;;5068411;28;20666;-71
2022/03/09 04:28:12;;;;;;;2.27;2.07;;;;;;;;;;5075310;28;20208;-70
2022/03/09 04:30:44;;;;;;;2.13;1.93;;;;;;;;;;5066233;28;20229;-70
2022/03/09 04:33:19;;;;;;;2.27;1.87;;;;;;;;;;5078473;28;20193;-69
2022/03/09 04:35:49;;;;;;;2.57;2.00;;;;;;;;;;5069832;28;20558;-70
2022/03/09 04:38:19;;;;;;;2.70;2.13;;;;;;;;;;5067173;28;20193;-72
2022/03/09 04:40:51;;;;;;;2.13;1.93;;;;;;;;;;5069874;28;20194;-70
2022/03/09 04:43:25;;;;;;;1.90;1.70;;;;;;;;;;5064175;28;20725;-69
2022/03/09 04:45:54;;;;;;;4.03;2.27;;;;;;;;;;5069763;28;20198;-70
2022/03/09 04:48:27;;;;;;;2.63;2.17;;;;;;;;;;5074137;28;20194;-70
2022/03/09 04:51:00;;;;;;;2.47;2.27;;;;;;;;;;5074370;28;20202;-69
2022/03/09 04:53:34;;;;;;;3.73;1.90;;;;;;;;;;5059173;28;20649;-70
2022/03/09 04:56:02;;;;;;;2.50;2.30;;;;;;;;;;5066601;28;20236;-70
2022/03/09 04:58:36;;;;;;;2.73;2.10;;;;;;;;;;5069083;28;20251;-71
2022/03/09 05:01:07;;;;;;;2.47;2.00;;;;;;;;;;5054066;28;20201;-69
2022/03/09 05:03:39;;;;;;;2.37;2.10;;;;;;;;;;5068038;28;20221;-70
2022/03/09 05:06:09;;;;;;;3.07;2.33;;;;;;;;;;5061787;28;20206;-70
2022/03/09 05:08:40;;;;;;;2.07;1.90;;;;;;;;;;5077369;28;20214;-70
2022/03/09 05:11:09;;;;;;;3.07;2.10;;;;;;;;;;5057595;28;20619;-70
2022/03/09 05:13:38;;;;;;;2.23;1.80;;;;;;;;;;5066901;28;20522;-69
2022/03/09 05:16:09;;;;;;;3.23;2.17;;;;;;;;;;5063833;28;20244;-69
2022/03/09 05:18:41;;;;;;;2.33;2.13;;;;;;;;;;5074173;28;20240;-69
2022/03/09 05:21:13;;;;;;;2.60;2.20;;;;;;;;;;5067816;28;20213;-70
2022/03/09 05:23:45;;;;;;;3.20;1.90;;;;;;;;;;5069721;28;20259;-69
2022/03/09 05:26:14;;;;;;;2.50;1.90;;;;;;;;;;5071719;28;20208;-69
2022/03/09 05:28:57;;;;;;;2.90;2.30;;;;;;;;;;5067407;28;20724;-69
2022/03/09 05:31:28;;;;;;;2.60;1.93;;;;;;;;;;5064370;28;20221;-71
2022/03/09 05:33:59;;;;;;;5.17;2.13;;;;;;;;;;5064175;28;20210;-70
2022/03/09 05:36:30;;;;;;;2.37;1.97;;;;;;;;;;5067757;28;20232;-71
2022/03/09 05:39:01;;;;;;;2.67;1.83;;;;;;;;;;5050727;28;20202;-70
2022/03/09 05:41:36;;;;;;;2.93;1.70;;;;;;;;;;5067229;28;20332;-71
2022/03/09 05:44:07;;;;;;;2.60;2.30;;;;;;;;;;5063300;28;20214;-70
2022/03/09 05:46:40;;;;;;;2.50;2.10;;;;;;;;;;5079087;28;20201;-70
2022/03/09 05:49:21;;;;;;;3.50;1.90;;;;;;;;;;5055715;28;20213;-69
2022/03/09 05:51:49;;;;;;;3.07;2.33;;;;;;;;;;5065186;28;20199;-70
2022/03/09 05:54:20;;;;;;;4.00;2.47;;;;;;;;;;5065409;28;20214;-70
2022/03/09 05:56:53;;;;;;;2.83;2.47;;;;;;;;;;5063130;28;20256;-70
2022/03/09 05:59:26;;;;;;;2.10;1.90;;;;;;;;;;5074017;28;20209;-69
2022/03/09 06:01:57;;;;;;;2.53;2.20;;;;;;;;;;5050833;28;20259;-68
2022/03/09 06:04:28;;;;;;;3.43;2.00;;;;;;;;;;5062235;28;20778;-68
2022/03/09 06:06:58;;;;;;;2.67;2.37;;;;;;;;;;5067771;28;20202;-68
2022/03/09 06:09:27;;;;;;;2.30;1.83;;;;;;;;;;5062809;28;20228;-68
2022/03/09 06:11:55;;;;;;;2.43;2.23;;;;;;;;;;5064634;28;20278;-70
2022/03/09 06:14:27;;;;;;;4.23;2.20;;;;;;;;;;5060497;28;20229;-71
2022/03/09 06:16:59;;;;;;;3.73;2.30;;;;;;;;;;5063431;28;20561;-71
2022/03/09 06:19:31;;;;;;;2.50;2.30;;;;;;;;;;5062213;28;20214;-70
2022/03/09 06:22:01;;;;;;;2.40;2.20;;;;;;;;;;5066210;28;20192;-69
2022/03/09 06:24:29;;;;;;;2.60;2.40;;;;;;;;;;5065031;28;20233;-69
2022/03/09 06:27:01;;;;;;;4.57;2.40;;;;;;;;;;5078102;28;20193;-70
2022/03/09 06:29:31;;;;;;;2.30;2.10;;;;;;;;;;5068776;28;20213;-70
2022/03/09 06:32:04;;;;;;;2.70;2.10;;;;;;;;;;5060068;28;20366;-70
2022/03/09 06:34:32;;;;;;;3.20;1.90;;;;;;;;;;5066748;28;20210;-71
2022/03/09 06:37:04;;;;;;;2.67;2.10;;;;;;;;;;5069212;28;20223;-69
2022/03/09 06:39:35;;;;;;;3.50;2.30;;;;;;;;;;5046332;28;20210;-69
2022/03/09 06:42:06;;;;;;;2.80;2.17;;;;;;;;;;5060773;28;20196;-71
2022/03/09 06:44:38;;;;;;;2.30;2.10;;;;;;;;;;5071144;28;20201;-70
2022/03/09 06:47:07;;;;;;;4.03;2.40;;;;;;;;;;5065830;28;20205;-70
2022/03/09 06:49:36;;;;;;;2.77;2.33;;;;;;;;;;5067988;28;20685;-70
2022/03/09 06:52:11;;;;;;;3.00;2.60;;;;;;;;;;5057229;28;20259;-69
2022/03/09 06:54:41;;;;;;;3.50;2.50;;;;;;;;;;5065767;28;20217;-69
2022/03/09 06:57:10;;;;;;;3.03;2.73;;;;;;;;;;5062242;28;20232;-70
2022/03/09 06:59:42;;;;;;;3.20;2.27;;;;;;;;;;5056990;28;20198;-70
2022/03/09 07:02:12;;;;;;;3.93;2.43;;;;;;;;;;5063543;28;20657;-68
2022/03/09 07:04:42;;;;;;;5.43;2.50;;;;;;;;;;5048364;28;20209;-67
2022/03/09 07:07:14;;;;;;;5.00;2.87;;;;;;;;;;5061828;28;20228;-69
2022/03/09 07:09:49;;;;;;;3.87;2.50;;;;;;;;;;5063207;28;20198;-69
2022/03/09 07:12:16;;;;;;;3.20;2.70;;;;;;;;;;5062072;28;20278;-71
2022/03/09 07:14:46;;;;;;;3.20;2.70;;;;;;;;;;5064989;28;20191;-70
2022/03/09 07:17:17;;;;;;;4.13;2.53;;;;;;;;;;5065113;28;20251;-70
2022/03/09 07:19:51;;;;;;;2.90;2.70;;;;;;;;;;5062881;28;20206;-71
2022/03/09 07:22:20;;;;;;;2.60;2.33;;;;;;;;;;5060967;28;20205;-69
2022/03/09 07:24:55;;;;;;;3.70;2.90;;;;;;;;;;5059241;28;20237;-69
2022/03/09 07:27:25;;;;;;;2.83;2.50;;;;;;;;;;5073363;28;20206;-69
2022/03/09 07:29:56;;;;;;;3.20;2.60;;;;;;;;;;5050305;28;20209;-69
2022/03/09 07:32:31;;;;;;;3.63;2.77;;;;;;;;;;5069098;28;20665;-69
2022/03/09 07:35:24;;;;;;;3.60;2.50;;;;;;;;;;5045073;28;20213;-67
2022/03/09 07:37:56;;;;;;;2.93;2.40;;;;;;;;;;5069662;28;20232;-67
2022/03/09 07:40:29;;;;;;;3.93;2.63;;;;;;;;;;5071032;28;20193;-70
2022/03/09 07:43:02;;;;;;;2.83;2.20;;;;;;;;;;5077432;28;20235;-71
2022/03/09 07:45:34;;;;;;;2.90;2.50;;;;;;;;;;5070775;28;20209;-71
2022/03/09 07:48:14;;;;;;;4.53;2.60;;;;;;;;;;5051278;28;20482;-70
2022/03/09 07:50:45;;;;;;;11.23;3.73;;;;;;;;;;5057446;28;20242;-71
2022/03/09 07:53:14;;;;;;;18.80;5.63;;;;;;;;;;5052560;28;20209;-67
2022/03/09 07:55:46;;;;;;;15.53;4.90;;;;;;;;;;5072976;28;20259;-68
2022/03/09 07:58:13;;;;;;;11.80;5.30;;;;;;;;;;5073322;28;20219;-69
2022/03/09 08:00:45;;;;;;;8.80;4.93;;;;;;;;;;5079528;28;20317;-71
2022/03/09 08:03:15;;;;;;;11.53;4.93;;;;;;;;;;5075455;28;20186;-70
2022/03/09 08:05:58;;;;;;;10.50;4.60;;;;;;;;;;5072923;28;20205;-68
2022/03/09 08:08:28;;;;;;;11.07;4.30;;;;;;;;;;5042193;28;20543;-69
2022/03/09 08:10:58;;;;;;;11.40;4.37;;;;;;;;;;5080264;28;20198;-69
2022/03/09 08:13:28;;;;;;;8.90;4.50;;;;;;;;;;5077369;28;20744;-68
2022/03/09 08:15:55;;;;;;;9.90;4.23;;;;;;;;;;5078180;28;21494;-68
2022/03/09 08:18:26;;;;;;;9.27;4.00;;;;;;;;;;5071460;28;20590;-68
2022/03/09 08:20:56;;;;;;;9.47;3.87;;;;;;;;;;5079339;28;20205;-64
2022/03/09 08:23:27;;;;;;;8.80;3.63;;;;;;;;;;5074530;28;20650;-68
2022/03/09 08:25:57;;;;;;;7.00;3.20;;;;;;;;;;5046509;28;20234;-66
2022/03/09 08:28:31;;;;;;;5.30;3.37;;;;;;;;;;5037938;28;20202;-67
2022/03/09 08:30:58;;;;;;;6.67;3.63;;;;;;;;;;5039554;28;20239;-66
2022/03/09 08:33:30;;;;;;;5.90;2.90;;;;;;;;;;5045798;28;20238;-67
2022/03/09 08:36:03;;;;;;;5.13;3.20;;;;;;;;;;5051183;28;20216;-69
2022/03/09 08:38:38;;;;;;;5.23;3.00;;;;;;;;;;5050817;28;20210;-70
2022/03/09 08:41:14;;;;;;;5.47;3.20;;;;;;;;;;5040970;28;20214;-71
2022/03/09 08:43:44;;;;;;;5.07;2.97;;;;;;;;;;5052401;28;20221;-71
2022/03/09 08:46:14;;;;;;;5.00;3.27;;;;;;;;;;5052515;28;20207;-70
2022/03/09 08:48:45;;;;;;;6.57;3.00;;;;;;;;;;5046568;28;20587;-70
2022/03/09 08:51:21;;;;;;;6.17;2.67;;;;;;;;;;5057214;28;20201;-70
2022/03/09 08:53:54;;;;;;;4.27;2.50;;;;;;;;;;5054737;28;20206;-69
2022/03/09 08:56:28;;;;;;;4.47;2.57;;;;;;;;;;5038519;28;20195;-67
2022/03/09 08:59:11;;;;;;;4.40;2.43;;;;;;;;;;5053109;28;20260;-68
2022/03/09 09:01:41;;;;;;;3.90;2.60;;;;;;;;;;5038671;28;20210;-70
2022/03/09 09:04:23;;;;;;;4.33;2.97;;;;;;;;;;5054177;28;20619;-70
2022/03/09 09:06:54;;;;;;;4.00;2.30;;;;;;;;;;5052530;28;20270;-71
2022/03/09 09:09:24;;;;;;;5.57;2.43;;;;;;;;;;5018651;28;20789;-69
2022/03/09 09:11:54;;;;;;;3.40;2.53;;;;;;;;;;5066806;28;20224;-70
2022/03/09 09:14:25;;;;;;;3.87;2.50;;;;;;;;;;5053456;28;20202;-68
2022/03/09 09:16:58;;;;;;;3.97;2.53;;;;;;;;;;5055651;28;20214;-71
2022/03/09 09:19:31;;;;;;;3.77;2.57;;;;;;;;;;5050369;28;20342;-71
2022/03/09 09:22:03;;;;;;;4.13;2.40;;;;;;;;;;5053869;28;20202;-72
2022/03/09 09:24:38;;;;;;;4.10;2.40;;;;;;;;;;5055177;28;20239;-73
2022/03/09 09:27:06;;;;;;;5.37;2.83;;;;;;;;;;5072883;28;20221;-68
2022/03/09 09:29:59;;;;;;;4.00;2.73;;;;;;;;;;5068413;28;20282;-68
2022/03/09 09:32:33;;;;;;;4.80;2.73;;;;;;;;;;5074589;28;20646;-74
2022/03/09 09:35:05;;;;;;;4.00;2.83;;;;;;;;;;5074638;28;20581;-72
2022/03/09 09:37:35;;;;;;;3.60;2.60;;;;;;;;;;5068397;28;20398;-71
2022/03/09 09:40:08;;;;;;;3.97;2.27;;;;;;;;;;5070299;28;20228;-72
2022/03/09 09:42:40;;;;;;;4.50;2.30;;;;;;;;;;5062285;28;20221;-70
2022/03/09 09:45:25;;;;;;;4.37;2.53;;;;;;;;;;5075786;28;20278;-71
2022/03/09 09:48:08;;;;;;;3.40;1.97;;;;;;;;;;5062570;28;20201;-72
2022/03/09 09:50:38;;;;;;;2.90;2.63;;;;;;;;;;5066852;28;20240;-72
2022/03/09 09:53:17;;;;;;;2.77;2.03;;;;;;;;;;5072844;28;20205;-71
2022/03/09 09:55:45;;;;;;;2.83;2.50;;;;;;;;;;5045060;28;20210;-71
2022/03/09 09:58:13;;;;;;;4.03;2.60;;;;;;;;;;5064232;28;20229;-72
2022/03/09 10:00:40;;;;;;;4.23;2.87;;;;;;;;;;5072874;28;20631;-69
2022/03/09 10:03:10;;;;;;;5.73;2.80;;;;;;;;;;5065474;28;20690;-71
2022/03/09 10:05:40;;;;;;;5.47;2.63;;;;;;;;;;5068426;28;20971;-69
2022/03/09 10:08:13;;;;;;;3.47;2.20;;;;;;;;;;5083769;28;20220;-70
2022/03/09 10:11:18;;;;;;;3.50;2.40;;;;;;;;;;5093615;28;20193;-69
2022/03/09 10:13:52;;;;;;;5.17;2.40;;;;;;;;;;5090888;28;20217;-69
2022/03/09 10:16:30;;;;;;;2.97;2.27;;;;;;;;;;5071387;28;20700;-69
2022/03/09 10:19:01;;;;;;;3.17;2.10;;;;;;;;;;5085759;28;20232;-71
2022/03/09 10:21:37;;;;;;;3.37;2.30;;;;;;;;;;5073425;28;20209;-71
2022/03/09 10:24:24;;;;;;;2.93;2.60;;;;;;;;;;5059271;28;20196;-72
2022/03/09 10:26:53;;;;;;;2.90;2.60;;;;;;;;;;5089917;28;20224;-70
2022/03/09 10:29:22;;;;;;;3.57;2.70;;;;;;;;;;5093134;28;20622;-70
2022/03/09 10:31:59;;;;;;;3.23;2.30;;;;;;;;;;5081023;28;20209;-72
2022/03/09 10:34:30;;;;;;;5.37;2.83;;;;;;;;;;5051824;28;20201;-72
2022/03/09 10:37:09;;;;;;;3.60;2.73;;;;;;;;;;5094713;28;20745;-70
2022/03/09 10:39:43;;;;;;;2.93;2.40;;;;;;;;;;5096200;28;20219;-72
2022/03/09 10:42:26;;;;;;;4.80;2.67;;;;;;;;;;5093803;28;20933;-71
2022/03/09 10:45:00;;;;;;;5.10;2.50;;;;;;;;;;5088857;28;20253;-69
2022/03/09 10:47:39;;;;;;;2.97;2.67;;;;;;;;;;5092555;28;20301;-70
2022/03/09 10:50:30;;;;;;;3.20;2.57;;;;;;;;;;5085343;28;20218;-71
2022/03/09 10:53:12;;;;;;;2.57;2.20;;;;;;;;;;5074421;28;20196;-70
2022/03/09 10:55:47;;;;;;;2.60;2.37;;;;;;;;;;5089917;28;20657;-72
2022/03/09 10:58:24;;;;;;;3.03;2.40;;;;;;;;;;5073314;28;20225;-71
2022/03/09 11:00:56;;;;;;;3.20;2.60;;;;;;;;;;5086197;28;20200;-69
2022/03/09 11:03:35;;;;;;;3.90;2.80;;;;;;;;;;5093740;28;20207;-69
2022/03/09 11:06:08;;;;;;;4.37;2.80;;;;;;;;;;5085850;28;20197;-70
2022/03/09 11:08:41;;;;;;;2.73;2.53;;;;;;;;;;5090751;28;20215;-68
2022/03/09 11:11:16;;;;;;;3.20;2.83;;;;;;;;;;5075257;28;20193;-69
2022/03/09 11:13:45;;;;;;;2.87;2.57;;;;;;;;;;5088997;28;20295;-67
2022/03/09 11:16:18;;;;;;;3.03;2.70;;;;;;;;;;5087225;28;20253;-68
2022/03/09 11:18:51;;;;;;;2.70;2.50;;;;;;;;;;5086079;28;20245;-72
2022/03/09 11:21:26;;;;;;;3.73;3.33;;;;;;;;;;5076215;28;20228;-72
2022/03/09 11:23:55;;;;;;;4.40;3.70;;;;;;;;;;5073474;28;20714;-72
2022/03/09 11:26:29;;;;;;;3.90;3.50;;;;;;;;;;5090034;28;20332;-73
2022/03/09 11:29:08;;;;;;;4.90;3.67;;;;;;;;;;5060599;28;20216;-73
2022/03/09 11:31:44;;;;;;;5.33;4.40;;;;;;;;;;5089785;28;20475;-71
2022/03/09 11:34:33;;;;;;;4.53;4.13;;;;;;;;;;5088868;28;20196;-71
2022/03/09 11:37:08;;;;;;;5.03;4.30;;;;;;;;;;5095196;28;20210;-74
2022/03/09 11:39:37;;;;;;;5.80;4.20;;;;;;;;;;5088767;28;20208;-74
2022/03/09 11:42:28;;;;;;;4.40;4.00;;;;;;;;;;5074448;28;20537;-73
2022/03/09 11:45:16;;;;;;;5.47;4.97;;;;;;;;;;5054970;28;20496;-72
2022/03/09 11:48:07;;;;;;;5.77;4.90;;;;;;;;;;5090395;28;20204;-73
2022/03/09 11:50:47;;;;;;;5.63;5.00;;;;;;;;;;5068575;28;20791;-72
2022/03/09 11:53:36;;;;;;;7.00;6.00;;;;;;;;;;5083179;28;20429;-71
2022/03/09 11:56:21;;;;;;;5.20;4.50;;;;;;;;;;5079851;28;20870;-68
2022/03/09 11:59:09;;;;;;;5.83;5.07;;;;;;;;;;5088588;28;20223;-66
2022/03/09 12:02:02;;;;;;;6.67;5.03;;;;;;;;;;5091927;28;20196;-65
2022/03/09 12:04:59;;;;;;;6.93;5.13;;;;;;;;;;5095015;28;20204;-68
2022/03/09 12:07:45;;;;;;;6.87;5.07;;;;;;;;;;5087357;28;20201;-67
2022/03/09 12:10:16;;;;;;;5.80;5.13;;;;;;;;;;5091273;28;20189;-69
2022/03/09 12:13:05;;;;;;;6.67;5.97;;;;;;;;;;5089660;28;20207;-69
2022/03/09 12:15:56;;;;;;;6.50;5.37;;;;;;;;;;5098629;28;20224;-67
2022/03/09 12:18:35;;;;;;;7.27;6.40;;;;;;;;;;5089298;28;20692;-67
2022/03/09 12:21:07;;;;;;;6.87;5.90;;;;;;;;;;5095994;28;20212;-68
2022/03/09 12:23:38;;;;;;;6.90;6.00;;;;;;;;;;5094640;28;20210;-69
2022/03/09 12:26:34;;;;;;;8.63;6.67;;;;;;;;;;5097293;28;20228;-66
2022/03/09 12:29:21;;;;;;;10.47;6.90;;;;;;;;;;5093918;28;20193;-67
2022/03/09 12:32:06;;;;;;;8.87;7.57;;;;;;;;;;5093279;28;20209;-66
2022/03/09 12:34:41;;;;;;;12.33;7.87;;;;;;;;;;5094518;28;20193;-66
2022/03/09 12:37:16;;;;;;;8.30;7.27;;;;;;;;;;5096647;28;20201;-66
2022/03/09 12:40:06;;;;;;;8.53;7.30;;;;;;;;;;5098254;28;20281;-67
2022/03/09 12:42:37;;;;;;;9.23;7.80;;;;;;;;;;5092157;28;20208;-65
2022/03/09 12:45:09;;;;;;;8.60;7.30;;;;;;;;;;5094191;28;20212;-68
2022/03/09 12:47:40;;;;;;;10.30;7.20;;;;;;;;;;5095891;28;20204;-66
2022/03/09 12:50:08;;;;;;;8.50;7.63;;;;;;;;;;5089960;28;20215;-67
2022/03/09 12:52:44;;;;;;;9.23;7.90;;;;;;;;;;5085479;28;20295;-68
2022/03/09 12:55:19;;;;;;;12.03;7.73;;;;;;;;;;5091633;28;20217;-67
2022/03/09 12:57:55;;;;;;;9.30;8.20;;;;;;;;;;5095617;28;20326;-68
2022/03/09 13:00:31;;;;;;;10.83;8.03;;;;;;;;;;5086680;28;20207;-69
2022/03/09 13:03:02;;;;;;;9.77;7.40;;;;;;;;;;5080449;28;20197;-70
2022/03/09 13:05:36;;;;;;;8.70;7.50;;;;;;;;;;5098370;28;20230;-70
2022/03/09 13:08:10;;;;;;;7.97;7.17;;;;;;;;;;5095221;28;20212;-70
2022/03/09 13:10:45;;;;;;;11.27;8.17;;;;;;;;;;5092185;28;20207;-66
2022/03/09 13:13:18;;;;;;;9.13;7.63;;;;;;;;;;5098246;28;20216;-68
2022/03/09 13:15:59;;;;;;;10.23;8.30;;;;;;;;;;5094570;28;20220;-66
2022/03/09 13:18:34;;;;;;;9.30;7.97;;;;;;;;;;5077684;28;20266;-65
2022/03/09 13:21:06;;;;;;;8.57;7.53;;;;;;;;;;5098851;28;20366;-67
2022/03/09 13:23:48;;;;;;;8.73;7.40;;;;;;;;;;5098157;28;20196;-68
2022/03/09 13:26:22;;;;;;;8.57;7.67;;;;;;;;;;5088336;28;20236;-71
2022/03/09 13:29:20;;;;;;;8.47;7.00;;;;;;;;;;5099237;28;20200;-70
2022/03/09 13:31:55;;;;;;;9.03;7.80;;;;;;;;;;5087626;28;20207;-69
2022/03/09 13:34:26;;;;;;;8.93;7.50;;;;;;;;;;5080434;28;21138;-68
2022/03/09 13:37:17;;;;;;;10.77;8.10;;;;;;;;;;5099688;28;20199;-70
2022/03/09 13:39:54;;;;;;;10.37;7.50;;;;;;;;;;5082060;28;20236;-69
2022/03/09 13:42:34;;;;;;;9.03;7.50;;;;;;;;;;5075549;28;20199;-69
2022/03/09 13:45:02;;;;;;;9.30;7.37;;;;;;;;;;5097310;28;20793;-69
2022/03/09 13:47:49;;;;;;;8.90;7.63;;;;;;;;;;5078487;28;20292;-67
2022/03/09 13:50:34;;;;;;;8.23;7.33;;;;;;;;;;5056701;28;20387;-69
2022/03/09 13:53:13;;;;;;;10.53;7.40;;;;;;;;;;5092890;28;20201;-68
2022/03/09 13:55:52;;;;;;;7.83;7.03;;;;;;;;;;5076364;28;20221;-69
2022/03/09 13:58:29;;;;;;;7.70;6.90;;;;;;;;;;5088821;28;20642;-68
2022/03/09 14:01:12;;;;;;;8.63;7.73;;;;;;;;;;5075344;28;20266;-66
2022/03/09 14:03:51;;;;;;;7.87;7.07;;;;;;;;;;5089751;28;20196;-65
2022/03/09 14:06:28;;;;;;;8.47;7.50;;;;;;;;;;5075631;28;20229;-65
2022/03/09 14:08:59;;;;;;;9.10;7.80;;;;;;;;;;5093452;28;20212;-65
2022/03/09 14:11:34;;;;;;;8.37;7.23;;;;;;;;;;5093380;28;20209;-67
2022/03/09 14:14:18;;;;;;;9.33;8.33;;;;;;;;;;5091313;28;20257;-68
2022/03/09 14:17:00;;;;;;;9.23;7.73;;;;;;;;;;5090041;28;20201;-65
2022/03/09 14:19:30;;;;;;;10.00;6.57;;;;;;;;;;5086870;28;20249;-65
2022/03/09 14:22:03;;;;;;;8.07;7.13;;;;;;;;;;5089325;28;20201;-65
2022/03/09 14:24:34;;;;;;;9.83;7.73;;;;;;;;;;5092423;28;20208;-65
2022/03/09 14:27:11;;;;;;;7.73;6.77;;;;;;;;;;5074799;28;20196;-65
2022/03/09 14:29:41;;;;;;;9.93;7.23;;;;;;;;;;5094851;28;20201;-64
2022/03/09 14:32:11;;;;;;;8.63;7.73;;;;;;;;;;5090409;28;20236;-67
2022/03/09 14:34:44;;;;;;;8.17;6.67;;;;;;;;;;5091952;28;20211;-68
2022/03/09 14:37:13;;;;;;;9.73;8.50;;;;;;;;;;5091727;28;20208;-66
2022/03/09 14:39:44;;;;;;;9.30;7.60;;;;;;;;;;5093142;28;20617;-68
2022/03/09 14:42:17;;;;;;;8.50;7.13;;;;;;;;;;5087528;28;20648;-67
2022/03/09 14:44:48;;;;;;;9.97;7.73;;;;;;;;;;5084932;28;20300;-68
2022/03/09 14:47:17;;;;;;;7.73;6.93;;;;;;;;;;5095557;28;20213;-67
2022/03/09 14:49:48;;;;;;;8.67;7.00;;;;;;;;;;5075198;28;21560;-67
2022/03/09 14:52:17;;;;;;;8.57;7.40;;;;;;;;;;5091869;28;20213;-64
2022/03/09 14:54:56;;;;;;;8.60;7.40;;;;;;;;;;5098936;27;20240;-64
2022/03/09 14:57:44;;;;;;;8.73;7.63;;;;;;;;;;5090701;28;20303;-68
2022/03/09 15:00:22;;;;;;;8.73;6.80;;;;;;;;;;5090208;28;20205;-65
2022/03/09 15:02:55;;;;;;;8.20;6.73;;;;;;;;;;5077281;28;20201;-66
2022/03/09 15:05:26;;;;;;;8.93;7.30;;;;;;;;;;5090130;28;20216;-65
2022/03/09 15:07:57;;;;;;;7.53;6.73;;;;;;;;;;5085677;28;20247;-65
2022/03/09 15:10:32;;;;;;;7.53;6.73;;;;;;;;;;5062846;28;20222;-67
2022/03/09 15:13:25;;;;;;;9.40;7.70;;;;;;;;;;5090925;28;20209;-69
2022/03/09 15:15:54;;;;;;;7.97;6.80;;;;;;;;;;5067325;28;20200;-68
2022/03/09 15:18:27;;;;;;;7.87;6.43;;;;;;;;;;5097370;28;20220;-68
2022/03/09 15:20:56;;;;;;;12.87;7.17;;;;;;;;;;5078612;28;20653;-66
2022/03/09 15:23:25;;;;;;;9.87;6.27;;;;;;;;;;5079816;28;20319;-68
2022/03/09 15:25:53;;;;;;;9.73;6.27;;;;;;;;;;5061516;28;20232;-70